EWG1VH EDDH-LOWS
Flight info
| Callsign | EWG1VH |
|---|---|
| Flight time | 1h 2m |
| Altitude | 35000 |
| Route | AMLUH M852 DENIX DCT ZUCKA DCT SODRO T703 ARBAX T108 OSTES T700 BADIT |
| Aircraft | A320/M-SDE3FGHIRWY/LB1 |
Departure
| Time | 2026-05-05 14:05 |
|---|---|
| Airport | Hamburg Helmut Schmidt Airport (EDDH) |
Arrival
| Time | 2026-05-05 15:07 |
|---|---|
| Airport | Salzburg Airport (LOWS) |
| Time | Latitude | Longitude | Altitude | Speed | Heading |
|---|---|---|---|---|---|
| 2026-05-05 13:34 | 53.63074 | 10.00376 | 48 ft | 0 kts | 93° |
| 2026-05-05 13:54 | 53.63074 | 10.00374 | 48 ft | 2 kts | 93° |
| 2026-05-05 13:54 | 53.63075 | 10.00332 | 48 ft | 3 kts | 93° |
| 2026-05-05 13:55 | 53.63077 | 10.00296 | 48 ft | 4 kts | 110° |
| 2026-05-05 13:55 | 53.63092 | 10.00264 | 45 ft | 4 kts | 164° |
| 2026-05-05 13:55 | 53.63101 | 10.00260 | 47 ft | 1 kts | 176° |
| 2026-05-05 14:02 | 53.63079 | 10.00236 | 48 ft | 8 kts | 221° |
| 2026-05-05 14:02 | 53.63031 | 10.00150 | 48 ft | 10 kts | 226° |
| 2026-05-05 14:02 | 53.62979 | 10.00087 | 45 ft | 9 kts | 212° |
| 2026-05-05 14:03 | 53.62935 | 10.00030 | 48 ft | 7 kts | 229° |
| 2026-05-05 14:03 | 53.62907 | 9.99948 | 48 ft | 12 kts | 242° |
| 2026-05-05 14:03 | 53.62867 | 9.99820 | 45 ft | 13 kts | 246° |
| 2026-05-05 14:03 | 53.62915 | 9.99704 | 45 ft | 20 kts | 333° |
| 2026-05-05 14:04 | 53.63075 | 9.99566 | 46 ft | 63 kts | 333° |
| 2026-05-05 14:04 | 53.63663 | 9.99057 | 48 ft | 125 kts | 333° |
| 2026-05-05 14:04 | 53.64584 | 9.98264 | 60 ft | 172 kts | 334° |
| 2026-05-05 14:04 | 53.65662 | 9.97335 | 603 ft | 173 kts | 336° |
| 2026-05-05 14:05 | 53.66735 | 9.96413 | 1323 ft | 172 kts | 336° |
| 2026-05-05 14:05 | 53.67795 | 9.95497 | 2029 ft | 170 kts | 336° |
| 2026-05-05 14:05 | 53.68879 | 9.94753 | 2681 ft | 167 kts | 352° |
| 2026-05-05 14:05 | 53.70028 | 9.94652 | 3255 ft | 167 kts | 2° |
| 2026-05-05 14:06 | 53.71263 | 9.94673 | 3568 ft | 188 kts | 2° |
| 2026-05-05 14:06 | 53.72565 | 9.95314 | 3842 ft | 209 kts | 39° |
| 2026-05-05 14:06 | 53.73395 | 9.97386 | 4337 ft | 220 kts | 66° |
| 2026-05-05 14:06 | 53.73917 | 9.99856 | 4924 ft | 227 kts | 72° |
| 2026-05-05 14:07 | 53.74186 | 10.02499 | 5495 ft | 233 kts | 94° |
| 2026-05-05 14:07 | 53.73759 | 10.05166 | 5927 ft | 247 kts | 119° |
| 2026-05-05 14:07 | 53.72844 | 10.07770 | 6249 ft | 270 kts | 122° |
| 2026-05-05 14:07 | 53.71871 | 10.10585 | 6845 ft | 282 kts | 121° |
| 2026-05-05 14:08 | 53.70888 | 10.13490 | 7630 ft | 286 kts | 121° |
| 2026-05-05 14:08 | 53.69889 | 10.16420 | 8446 ft | 290 kts | 125° |
| 2026-05-05 14:08 | 53.68571 | 10.19057 | 9269 ft | 291 kts | 140° |
| 2026-05-05 14:08 | 53.66934 | 10.20978 | 10043 ft | 292 kts | 156° |
| 2026-05-05 14:09 | 53.64983 | 10.22203 | 10486 ft | 306 kts | 167° |
| 2026-05-05 14:09 | 53.62852 | 10.23173 | 10729 ft | 328 kts | 167° |
| 2026-05-05 14:09 | 53.60610 | 10.24184 | 11271 ft | 337 kts | 167° |
| 2026-05-05 14:09 | 53.58329 | 10.25217 | 11961 ft | 342 kts | 167° |
| 2026-05-05 14:10 | 53.56022 | 10.26268 | 12679 ft | 346 kts | 167° |
| 2026-05-05 14:10 | 53.53684 | 10.27334 | 13371 ft | 350 kts | 167° |
| 2026-05-05 14:10 | 53.51317 | 10.28414 | 14020 ft | 354 kts | 167° |
| 2026-05-05 14:10 | 53.48927 | 10.29504 | 14629 ft | 358 kts | 167° |
| 2026-05-05 14:11 | 53.46509 | 10.30602 | 15261 ft | 362 kts | 167° |
| 2026-05-05 14:11 | 53.44063 | 10.31712 | 15863 ft | 366 kts | 168° |
| 2026-05-05 14:11 | 53.41595 | 10.32831 | 16475 ft | 369 kts | 168° |
| 2026-05-05 14:11 | 53.39100 | 10.33961 | 17094 ft | 373 kts | 168° |
| 2026-05-05 14:12 | 53.36582 | 10.35094 | 17702 ft | 376 kts | 168° |
| 2026-05-05 14:12 | 53.34046 | 10.36229 | 18283 ft | 380 kts | 168° |
| 2026-05-05 14:12 | 53.31480 | 10.37377 | 18812 ft | 383 kts | 168° |
| 2026-05-05 14:12 | 53.28896 | 10.38536 | 19356 ft | 385 kts | 168° |
| 2026-05-05 14:13 | 53.26302 | 10.39699 | 19903 ft | 387 kts | 168° |
| 2026-05-05 14:13 | 53.23694 | 10.40863 | 20458 ft | 390 kts | 168° |
| 2026-05-05 14:13 | 53.21063 | 10.42036 | 20999 ft | 392 kts | 168° |
| 2026-05-05 14:13 | 53.18424 | 10.43214 | 21549 ft | 394 kts | 168° |
| 2026-05-05 14:14 | 53.15765 | 10.44402 | 22107 ft | 397 kts | 169° |
| 2026-05-05 14:14 | 53.13093 | 10.45591 | 22641 ft | 399 kts | 169° |
| 2026-05-05 14:14 | 53.10387 | 10.46655 | 23159 ft | 400 kts | 172° |
| 2026-05-05 14:14 | 53.07655 | 10.47558 | 23630 ft | 402 kts | 173° |
| 2026-05-05 14:15 | 53.04897 | 10.48373 | 24060 ft | 403 kts | 174° |
| 2026-05-05 14:15 | 53.02131 | 10.49154 | 24479 ft | 405 kts | 174° |
| 2026-05-05 14:15 | 52.99347 | 10.49946 | 24894 ft | 406 kts | 174° |
| 2026-05-05 14:15 | 52.96560 | 10.50761 | 25310 ft | 408 kts | 174° |
| 2026-05-05 14:16 | 52.93762 | 10.51606 | 25706 ft | 409 kts | 174° |
| 2026-05-05 14:16 | 52.90956 | 10.52475 | 26098 ft | 411 kts | 174° |
| 2026-05-05 14:16 | 52.88143 | 10.53356 | 26479 ft | 412 kts | 174° |
| 2026-05-05 14:16 | 52.85319 | 10.54241 | 26863 ft | 414 kts | 174° |
| 2026-05-05 14:17 | 52.82487 | 10.55121 | 27233 ft | 415 kts | 174° |
| 2026-05-05 14:17 | 52.79638 | 10.56002 | 27597 ft | 417 kts | 174° |
| 2026-05-05 14:17 | 52.76785 | 10.56882 | 27954 ft | 418 kts | 174° |
| 2026-05-05 14:17 | 52.73921 | 10.57764 | 28299 ft | 420 kts | 174° |
| 2026-05-05 14:18 | 52.71045 | 10.58644 | 28647 ft | 421 kts | 174° |
| 2026-05-05 14:18 | 52.68178 | 10.59516 | 28974 ft | 422 kts | 174° |
| 2026-05-05 14:18 | 52.65265 | 10.60400 | 29298 ft | 424 kts | 174° |
| 2026-05-05 14:18 | 52.62359 | 10.61285 | 29605 ft | 425 kts | 174° |
| 2026-05-05 14:19 | 52.59445 | 10.62175 | 29912 ft | 427 kts | 174° |
| 2026-05-05 14:19 | 52.56522 | 10.63070 | 30172 ft | 428 kts | 174° |
| 2026-05-05 14:19 | 52.53588 | 10.63972 | 30414 ft | 430 kts | 174° |
| 2026-05-05 14:19 | 52.50646 | 10.64872 | 30651 ft | 431 kts | 174° |
| 2026-05-05 14:20 | 52.47693 | 10.65770 | 30882 ft | 432 kts | 175° |
| 2026-05-05 14:20 | 52.44732 | 10.66669 | 31127 ft | 433 kts | 175° |
| 2026-05-05 14:20 | 52.41780 | 10.67564 | 31459 ft | 431 kts | 175° |
| 2026-05-05 14:20 | 52.38832 | 10.68454 | 31795 ft | 430 kts | 175° |
| 2026-05-05 14:21 | 52.35896 | 10.69334 | 32107 ft | 429 kts | 175° |
| 2026-05-05 14:21 | 52.32969 | 10.70210 | 32415 ft | 428 kts | 175° |
| 2026-05-05 14:21 | 52.30042 | 10.71088 | 32739 ft | 427 kts | 175° |
| 2026-05-05 14:21 | 52.27129 | 10.71963 | 33055 ft | 425 kts | 175° |
| 2026-05-05 14:22 | 52.24225 | 10.72835 | 33377 ft | 424 kts | 175° |
| 2026-05-05 14:22 | 52.21322 | 10.73707 | 33709 ft | 423 kts | 175° |
| 2026-05-05 14:22 | 52.18434 | 10.74576 | 34013 ft | 422 kts | 176° |
| 2026-05-05 14:22 | 52.15551 | 10.75445 | 34268 ft | 421 kts | 175° |
| 2026-05-05 14:23 | 52.12665 | 10.76312 | 34485 ft | 422 kts | 175° |
| 2026-05-05 14:23 | 52.09778 | 10.77174 | 34698 ft | 422 kts | 175° |
| 2026-05-05 14:23 | 52.06892 | 10.78031 | 34835 ft | 422 kts | 175° |
| 2026-05-05 14:23 | 52.04013 | 10.78886 | 34873 ft | 419 kts | 175° |
| 2026-05-05 14:24 | 51.98307 | 10.80573 | 34868 ft | 416 kts | 175° |
| 2026-05-05 14:24 | 51.92614 | 10.82247 | 34866 ft | 415 kts | 175° |
| 2026-05-05 14:25 | 51.86933 | 10.83914 | 34866 ft | 415 kts | 175° |
| 2026-05-05 14:25 | 51.81252 | 10.85594 | 34862 ft | 415 kts | 175° |
| 2026-05-05 14:26 | 51.75583 | 10.87272 | 34858 ft | 414 kts | 175° |
| 2026-05-05 14:26 | 51.69908 | 10.88931 | 34854 ft | 414 kts | 175° |
| 2026-05-05 14:27 | 51.64407 | 10.91994 | 34848 ft | 425 kts | 159° |
| 2026-05-05 14:27 | 51.59108 | 10.96215 | 34841 ft | 425 kts | 160° |
| 2026-05-05 14:28 | 51.53801 | 11.00399 | 34841 ft | 425 kts | 159° |
| 2026-05-05 14:28 | 51.48497 | 11.04564 | 34839 ft | 424 kts | 159° |
| 2026-05-05 14:29 | 51.43190 | 11.08720 | 34838 ft | 424 kts | 159° |
| 2026-05-05 14:29 | 51.37887 | 11.12872 | 34836 ft | 424 kts | 159° |
| 2026-05-05 14:30 | 51.32585 | 11.17005 | 34834 ft | 424 kts | 159° |
| 2026-05-05 14:30 | 51.27284 | 11.21128 | 34831 ft | 424 kts | 159° |
| 2026-05-05 14:31 | 51.21943 | 11.25261 | 34832 ft | 424 kts | 159° |
| 2026-05-05 14:31 | 51.16638 | 11.29363 | 34830 ft | 424 kts | 159° |
| 2026-05-05 14:32 | 51.11335 | 11.33460 | 34830 ft | 423 kts | 159° |
| 2026-05-05 14:32 | 51.06036 | 11.37552 | 34828 ft | 423 kts | 159° |
| 2026-05-05 14:33 | 51.00735 | 11.41629 | 34828 ft | 423 kts | 159° |
| 2026-05-05 14:33 | 50.95438 | 11.45698 | 34826 ft | 423 kts | 159° |
| 2026-05-05 14:34 | 50.90136 | 11.49752 | 34827 ft | 423 kts | 159° |
| 2026-05-05 14:34 | 50.84836 | 11.53781 | 34820 ft | 423 kts | 159° |
| 2026-05-05 14:35 | 50.79533 | 11.57801 | 34824 ft | 423 kts | 159° |
| 2026-05-05 14:35 | 50.74232 | 11.61828 | 34818 ft | 423 kts | 159° |
| 2026-05-05 14:36 | 50.68934 | 11.65845 | 34812 ft | 422 kts | 159° |
| 2026-05-05 14:36 | 50.63635 | 11.69836 | 34807 ft | 422 kts | 159° |
| 2026-05-05 14:37 | 50.58331 | 11.73821 | 34807 ft | 422 kts | 159° |
| 2026-05-05 14:37 | 50.53029 | 11.77798 | 34817 ft | 422 kts | 159° |
| 2026-05-05 14:38 | 50.47639 | 11.81296 | 34822 ft | 416 kts | 167° |
| 2026-05-05 14:38 | 50.42079 | 11.83875 | 34826 ft | 417 kts | 167° |
| 2026-05-05 14:39 | 50.36519 | 11.86460 | 34831 ft | 417 kts | 167° |
| 2026-05-05 14:39 | 50.30955 | 11.89029 | 34837 ft | 417 kts | 167° |
| 2026-05-05 14:40 | 50.25398 | 11.91587 | 34838 ft | 416 kts | 167° |
| 2026-05-05 14:40 | 50.20772 | 11.93696 | 34833 ft | 416 kts | 167° |
| 2026-05-05 14:41 | 50.15210 | 11.96240 | 34825 ft | 416 kts | 167° |
| 2026-05-05 14:41 | 50.09648 | 11.98770 | 34811 ft | 416 kts | 167° |
| 2026-05-05 14:42 | 50.04090 | 12.01306 | 34801 ft | 416 kts | 167° |
| 2026-05-05 14:42 | 49.98527 | 12.03846 | 34772 ft | 417 kts | 167° |
| 2026-05-05 14:43 | 49.92964 | 12.06379 | 34767 ft | 417 kts | 167° |
| 2026-05-05 14:43 | 49.87401 | 12.08900 | 34765 ft | 417 kts | 167° |
| 2026-05-05 14:44 | 49.81834 | 12.11414 | 34764 ft | 417 kts | 167° |
| 2026-05-05 14:44 | 49.76266 | 12.13927 | 34766 ft | 417 kts | 167° |
| 2026-05-05 14:45 | 49.70702 | 12.16424 | 34763 ft | 416 kts | 167° |
| 2026-05-05 14:45 | 49.65134 | 12.18905 | 34766 ft | 416 kts | 167° |
| 2026-05-05 14:46 | 49.59570 | 12.21391 | 34771 ft | 416 kts | 167° |
| 2026-05-05 14:46 | 49.54013 | 12.23885 | 34703 ft | 416 kts | 167° |
| 2026-05-05 14:47 | 49.51214 | 12.25139 | 33966 ft | 420 kts | 167° |
| 2026-05-05 14:47 | 49.48400 | 12.26389 | 33091 ft | 422 kts | 167° |
| 2026-05-05 14:47 | 49.45575 | 12.27636 | 32212 ft | 424 kts | 167° |
| 2026-05-05 14:47 | 49.42739 | 12.28892 | 31519 ft | 422 kts | 167° |
| 2026-05-05 14:48 | 49.39933 | 12.30137 | 30941 ft | 418 kts | 167° |
| 2026-05-05 14:48 | 49.37119 | 12.31382 | 30342 ft | 414 kts | 167° |
| 2026-05-05 14:48 | 49.34365 | 12.32599 | 29776 ft | 410 kts | 167° |
| 2026-05-05 14:48 | 49.31663 | 12.33793 | 29145 ft | 407 kts | 167° |
| 2026-05-05 14:49 | 49.28922 | 12.35004 | 28526 ft | 404 kts | 166° |
| 2026-05-05 14:49 | 49.26267 | 12.36176 | 27929 ft | 401 kts | 166° |
| 2026-05-05 14:49 | 49.23564 | 12.37364 | 27328 ft | 397 kts | 166° |
| 2026-05-05 14:49 | 49.20911 | 12.38525 | 26759 ft | 394 kts | 166° |
| 2026-05-05 14:50 | 49.18284 | 12.39676 | 26198 ft | 391 kts | 166° |
| 2026-05-05 14:50 | 49.15676 | 12.40815 | 25667 ft | 388 kts | 166° |
| 2026-05-05 14:50 | 49.13090 | 12.41945 | 25143 ft | 386 kts | 166° |
| 2026-05-05 14:50 | 49.10520 | 12.43072 | 24628 ft | 383 kts | 166° |
| 2026-05-05 14:51 | 49.07960 | 12.44195 | 24124 ft | 381 kts | 166° |
| 2026-05-05 14:51 | 49.05423 | 12.45306 | 23630 ft | 379 kts | 166° |
| 2026-05-05 14:51 | 49.02898 | 12.46406 | 23130 ft | 376 kts | 166° |
| 2026-05-05 14:51 | 49.00388 | 12.47494 | 22600 ft | 374 kts | 166° |
| 2026-05-05 14:52 | 48.97896 | 12.48575 | 22091 ft | 371 kts | 165° |
| 2026-05-05 14:52 | 48.95428 | 12.49648 | 21615 ft | 368 kts | 165° |
| 2026-05-05 14:52 | 48.92974 | 12.50715 | 21128 ft | 365 kts | 166° |
| 2026-05-05 14:52 | 48.90538 | 12.51772 | 20647 ft | 363 kts | 166° |
| 2026-05-05 14:53 | 48.88126 | 12.52818 | 20189 ft | 360 kts | 165° |
| 2026-05-05 14:53 | 48.85718 | 12.53860 | 19730 ft | 358 kts | 165° |
| 2026-05-05 14:53 | 48.83333 | 12.54893 | 19278 ft | 355 kts | 165° |
| 2026-05-05 14:53 | 48.80965 | 12.55921 | 18832 ft | 353 kts | 165° |
| 2026-05-05 14:54 | 48.78612 | 12.56942 | 18396 ft | 351 kts | 165° |
| 2026-05-05 14:54 | 48.76274 | 12.57953 | 17965 ft | 349 kts | 165° |
| 2026-05-05 14:54 | 48.73951 | 12.58953 | 17477 ft | 347 kts | 165° |
| 2026-05-05 14:54 | 48.71634 | 12.59951 | 17012 ft | 345 kts | 165° |
| 2026-05-05 14:55 | 48.69333 | 12.60942 | 16553 ft | 343 kts | 165° |
| 2026-05-05 14:55 | 48.67043 | 12.61927 | 16096 ft | 342 kts | 165° |
| 2026-05-05 14:55 | 48.64760 | 12.62907 | 15639 ft | 340 kts | 165° |
| 2026-05-05 14:55 | 48.62487 | 12.63878 | 15210 ft | 339 kts | 165° |
| 2026-05-05 14:56 | 48.60222 | 12.64848 | 14754 ft | 338 kts | 165° |
| 2026-05-05 14:56 | 48.57962 | 12.65820 | 14344 ft | 337 kts | 165° |
| 2026-05-05 14:56 | 48.55714 | 12.66783 | 13938 ft | 335 kts | 165° |
| 2026-05-05 14:56 | 48.53478 | 12.67736 | 13522 ft | 333 kts | 165° |
| 2026-05-05 14:57 | 48.51254 | 12.68684 | 13072 ft | 331 kts | 165° |
| 2026-05-05 14:57 | 48.49039 | 12.69627 | 12624 ft | 329 kts | 165° |
| 2026-05-05 14:57 | 48.46844 | 12.70561 | 12183 ft | 327 kts | 165° |
| 2026-05-05 14:57 | 48.44660 | 12.71490 | 11753 ft | 325 kts | 165° |
| 2026-05-05 14:58 | 48.42494 | 12.72414 | 11334 ft | 323 kts | 165° |
| 2026-05-05 14:58 | 48.40336 | 12.73335 | 10926 ft | 321 kts | 165° |
| 2026-05-05 14:58 | 48.38199 | 12.74246 | 10542 ft | 319 kts | 165° |
| 2026-05-05 14:58 | 48.36076 | 12.75147 | 10148 ft | 317 kts | 166° |
| 2026-05-05 14:59 | 48.33960 | 12.76040 | 9734 ft | 314 kts | 166° |
| 2026-05-05 14:59 | 48.31858 | 12.76927 | 9284 ft | 313 kts | 165° |
| 2026-05-05 14:59 | 48.29766 | 12.77811 | 8830 ft | 312 kts | 165° |
| 2026-05-05 14:59 | 48.27685 | 12.78688 | 8383 ft | 309 kts | 166° |
| 2026-05-05 15:00 | 48.25620 | 12.79560 | 7937 ft | 308 kts | 165° |
| 2026-05-05 15:00 | 48.24254 | 12.80139 | 7644 ft | 308 kts | 165° |
| 2026-05-05 15:00 | 48.21505 | 12.81304 | 7070 ft | 306 kts | 165° |
| 2026-05-05 15:00 | 48.19460 | 12.82165 | 6611 ft | 305 kts | 165° |
| 2026-05-05 15:01 | 48.17419 | 12.83024 | 6210 ft | 302 kts | 166° |
| 2026-05-05 15:01 | 48.15426 | 12.83848 | 5999 ft | 292 kts | 166° |
| 2026-05-05 15:01 | 48.13490 | 12.84583 | 5832 ft | 282 kts | 168° |
| 2026-05-05 15:01 | 48.11608 | 12.85258 | 5633 ft | 274 kts | 168° |
| 2026-05-05 15:02 | 48.09752 | 12.85906 | 5468 ft | 274 kts | 168° |
| 2026-05-05 15:02 | 48.07902 | 12.86551 | 5303 ft | 274 kts | 168° |
| 2026-05-05 15:02 | 48.06060 | 12.87198 | 5151 ft | 272 kts | 168° |
| 2026-05-05 15:02 | 48.04247 | 12.87844 | 4995 ft | 263 kts | 168° |
| 2026-05-05 15:03 | 48.02507 | 12.88472 | 4853 ft | 252 kts | 167° |
| 2026-05-05 15:03 | 48.00827 | 12.89080 | 4738 ft | 244 kts | 169° |
| 2026-05-05 15:03 | 47.99170 | 12.89321 | 4599 ft | 236 kts | 180° |
| 2026-05-05 15:03 | 47.97560 | 12.89361 | 4494 ft | 229 kts | 180° |
| 2026-05-05 15:04 | 47.96009 | 12.89804 | 4357 ft | 227 kts | 161° |
| 2026-05-05 15:04 | 47.94568 | 12.90698 | 4239 ft | 220 kts | 158° |
| 2026-05-05 15:04 | 47.93185 | 12.91603 | 4085 ft | 217 kts | 159° |
| 2026-05-05 15:04 | 47.91790 | 12.92495 | 3847 ft | 219 kts | 158° |
| 2026-05-05 15:05 | 47.89015 | 12.94260 | 3254 ft | 208 kts | 159° |
| 2026-05-05 15:05 | 47.87719 | 12.95083 | 2997 ft | 197 kts | 159° |
| 2026-05-05 15:05 | 47.86470 | 12.95875 | 2725 ft | 192 kts | 159° |
| 2026-05-05 15:06 | 47.85295 | 12.96620 | 2516 ft | 177 kts | 156° |
| 2026-05-05 15:06 | 47.84196 | 12.97315 | 2268 ft | 166 kts | 155° |
| 2026-05-05 15:06 | 47.83163 | 12.97970 | 2035 ft | 159 kts | 156° |
| 2026-05-05 15:06 | 47.82140 | 12.98622 | 1837 ft | 157 kts | 157° |
| 2026-05-05 15:07 | 47.81135 | 12.99261 | 1646 ft | 157 kts | 158° |
| 2026-05-05 15:07 | 47.80134 | 12.99886 | 1438 ft | 155 kts | 158° |
| 2026-05-05 15:07 | 47.79231 | 13.00456 | 1421 ft | 116 kts | 157° |
| 2026-05-05 15:07 | 47.78770 | 13.00747 | 1422 ft | 30 kts | 156° |
| 2026-05-05 15:08 | 47.78609 | 13.00848 | 1421 ft | 12 kts | 161° |
| 2026-05-05 15:08 | 47.78553 | 13.00800 | 1423 ft | 9 kts | 243° |
| 2026-05-05 15:08 | 47.78531 | 13.00722 | 1420 ft | 8 kts | 252° |
| 2026-05-05 15:08 | 47.78538 | 13.00644 | 1422 ft | 8 kts | 300° |
| 2026-05-05 15:09 | 47.78603 | 13.00588 | 1426 ft | 14 kts | 336° |
| 2026-05-05 15:09 | 47.78696 | 13.00529 | 1420 ft | 15 kts | 337° |
| 2026-05-05 15:09 | 47.78800 | 13.00463 | 1421 ft | 17 kts | 337° |
| 2026-05-05 15:09 | 47.78904 | 13.00397 | 1426 ft | 12 kts | 337° |
| 2026-05-05 15:10 | 47.78951 | 13.00341 | 1420 ft | 6 kts | 287° |
| 2026-05-05 15:10 | 47.78954 | 13.00282 | 1420 ft | 9 kts | 273° |
| 2026-05-05 15:10 | 47.78964 | 13.00172 | 1423 ft | 12 kts | 295° |
| 2026-05-05 15:10 | 47.79035 | 13.00105 | 1420 ft | 13 kts | 337° |
| 2026-05-05 15:11 | 47.79123 | 13.00050 | 1422 ft | 14 kts | 336° |
| 2026-05-05 15:11 | 47.79207 | 12.99996 | 1420 ft | 7 kts | 338° |
| 2026-05-05 15:11 | 47.79231 | 12.99992 | 1420 ft | 4 kts | 18° |
| 2026-05-05 15:11 | 47.79238 | 13.00030 | 1421 ft | 3 kts | 92° |
| 2026-05-05 15:12 | 47.79235 | 13.00061 | 1423 ft | 3 kts | 100° |
| 2026-05-05 15:12 | 47.79232 | 13.00083 | 1422 ft | 0 kts | 101° |